Time;durP1;ratioP1;P1;durP2;ratioP2;P2;SDS_P1;SDS_P2;PMS_P1;PMS_P2;Temp;Humidity;BMP_temperature;BMP_pressure;BME280_temperature;BME280_humidity;BME280_pressure;Samples;Min_cycle;Max_cycle;Signal;HPM_P1;HPM_P2
2022/06/28 00:02:22;;;;;;;4.70;2.38;;;;;;;25.71;43.20;98767.47;5013151;28;20065;-75
2022/06/28 00:04:48;;;;;;;3.45;2.30;;;;;;;25.77;43.11;98763.13;5014568;28;20092;-75
2022/06/28 00:07:14;;;;;;;6.43;2.40;;;;;;;25.80;43.14;98766.19;5014579;28;20109;-75
2022/06/28 00:09:39;;;;;;;3.90;2.20;;;;;;;25.85;42.76;98756.72;5014205;28;20064;-76
2022/06/28 00:12:05;;;;;;;4.20;2.20;;;;;;;25.88;42.51;98757.09;4996551;28;20175;-73
2022/06/28 00:17:14;;;;;;;4.68;2.10;;;;;;;25.96;41.86;98739.97;4999727;28;20032;-74
2022/06/28 00:19:40;;;;;;;3.92;2.30;;;;;;;25.96;42.61;98739.97;5014131;28;20030;-74
2022/06/28 00:22:05;;;;;;;8.25;2.47;;;;;;;26.00;42.47;98741.22;5013039;28;20532;-74
2022/06/28 00:24:31;;;;;;;5.18;2.30;;;;;;;26.00;42.33;98731.34;5012945;28;20046;-75
2022/06/28 00:26:56;;;;;;;3.90;2.28;;;;;;;26.03;42.54;98738.13;5013028;28;20038;-74
2022/06/28 00:29:22;;;;;;;3.90;2.10;;;;;;;26.01;41.70;98737.50;4996213;28;20045;-74
2022/06/28 00:31:47;;;;;;;4.95;2.30;;;;;;;26.08;41.97;98740.13;5013036;28;20584;-74
2022/06/28 00:34:13;;;;;;;3.72;2.38;;;;;;;26.10;41.76;98738.06;5012897;28;20119;-74
2022/06/28 00:36:38;;;;;;;3.45;2.35;;;;;;;26.16;41.63;98742.53;5012466;28;20049;-74
2022/06/28 00:39:04;;;;;;;7.38;2.38;;;;;;;26.12;41.15;98738.66;5012572;28;20026;-74
2022/06/28 00:41:29;;;;;;;2.55;2.22;;;;;;;26.15;41.13;98740.88;4996161;28;20053;-74
2022/06/28 00:43:55;;;;;;;3.63;2.35;;;;;;;26.11;41.12;98739.72;5012713;28;20038;-74
2022/06/28 00:46:21;;;;;;;4.05;2.42;;;;;;;26.12;41.16;98741.31;4996377;28;20030;-75
2022/06/28 00:48:46;;;;;;;6.85;2.38;;;;;;;26.13;41.24;98735.75;5012750;28;20046;-75
2022/06/28 00:51:12;;;;;;;3.80;2.10;;;;;;;26.13;41.60;98732.28;4979918;28;20096;-75
2022/06/28 00:53:37;;;;;;;5.93;2.45;;;;;;;26.17;41.18;98730.78;5012288;28;20037;-75
2022/06/28 00:56:03;;;;;;;3.95;2.08;;;;;;;26.12;40.74;98733.31;5013633;28;20053;-75
2022/06/28 00:58:28;;;;;;;5.65;2.58;;;;;;;26.16;41.10;98740.66;5013355;28;20499;-75
2022/06/28 01:00:54;;;;;;;11.38;2.35;;;;;;;26.13;41.13;98741.09;5012271;28;20034;-75
2022/06/28 01:03:23;;;;;;;6.97;2.15;;;;;;;26.13;41.21;98746.44;5012478;28;20112;-75
2022/06/28 01:05:49;;;;;;;3.95;2.08;;;;;;;26.15;40.98;98735.53;4996150;28;20026;-75
2022/06/28 01:08:15;;;;;;;3.83;2.35;;;;;;;26.21;41.37;98740.03;5028292;28;20092;-75
2022/06/28 01:10:41;;;;;;;3.55;1.95;;;;;;;26.23;41.01;98737.13;4979687;28;20021;-75
2022/06/28 01:13:07;;;;;;;5.25;2.20;;;;;;;26.24;41.04;98746.81;5011867;28;20072;-74
2022/06/28 01:15:32;;;;;;;3.63;2.10;;;;;;;26.27;40.78;98736.47;4995846;28;20021;-75
2022/06/28 01:18:01;;;;;;;5.20;2.40;;;;;;;26.26;40.67;98745.53;5011978;28;20109;-75
2022/06/28 01:20:27;;;;;;;4.97;2.08;;;;;;;26.28;40.78;98745.31;5012130;28;20138;-75
2022/06/28 01:22:53;;;;;;;4.00;1.98;;;;;;;26.25;40.93;98748.41;5013155;28;20186;-75
2022/06/28 01:25:19;;;;;;;7.60;2.22;;;;;;;26.26;41.10;98750.06;4995583;28;20026;-75
2022/06/28 01:27:44;;;;;;;8.98;2.28;;;;;;;26.24;40.96;98754.81;5011793;28;20152;-74
2022/06/28 01:30:10;;;;;;;8.05;2.70;;;;;;;26.26;41.14;98758.91;4995208;28;20473;-74
2022/06/28 01:32:36;;;;;;;4.30;2.45;;;;;;;26.22;40.64;98746.19;5011887;28;20073;-74
2022/06/28 01:35:02;;;;;;;6.10;2.22;;;;;;;26.26;40.86;98761.56;5011840;28;20489;-74
2022/06/28 01:37:28;;;;;;;5.00;2.00;;;;;;;26.26;40.77;98763.44;5011802;28;20037;-74
2022/06/28 01:39:53;;;;;;;6.22;2.40;;;;;;;26.27;40.99;98759.75;4978887;28;20033;-74
2022/06/28 01:42:19;;;;;;;6.07;2.17;;;;;;;26.26;40.63;98763.44;5012185;28;20076;-74
2022/06/28 01:44:45;;;;;;;4.00;2.08;;;;;;;26.21;40.85;98760.63;5011578;28;20026;-74
2022/06/28 01:47:11;;;;;;;5.18;2.20;;;;;;;26.23;41.02;98758.53;4995293;28;20049;-74
2022/06/28 01:49:36;;;;;;;4.25;2.05;;;;;;;26.22;41.08;98759.56;4995452;28;20026;-74
2022/06/28 01:52:02;;;;;;;2.97;1.90;;;;;;;26.23;41.17;98759.34;4994985;28;20037;-74
2022/06/28 01:54:28;;;;;;;5.75;2.30;;;;;;;26.22;41.23;98757.72;5013091;28;20037;-74
2022/06/28 01:56:53;;;;;;;3.33;2.10;;;;;;;26.17;41.43;98741.47;4995623;28;20065;-75
2022/06/28 01:59:18;;;;;;;6.75;2.35;;;;;;;26.20;41.11;98748.25;5011755;28;20029;-75
2022/06/28 02:01:44;;;;;;;6.78;2.10;;;;;;;26.15;41.42;98751.59;4995429;28;20397;-75
2022/06/28 02:04:20;;;;;;;5.32;2.33;;;;;;;26.11;41.75;98743.19;4994811;28;20044;-76
2022/06/28 02:06:46;;;;;;;3.65;2.15;;;;;;;26.08;41.58;98730.25;4978793;28;20038;-76
2022/06/28 02:09:11;;;;;;;5.57;2.38;;;;;;;26.10;41.83;98732.72;4994644;28;20046;-75
2022/06/28 02:11:37;;;;;;;2.72;1.98;;;;;;;26.07;41.63;98736.63;5012361;28;20038;-74
2022/06/28 02:14:02;;;;;;;4.05;2.00;;;;;;;26.05;41.58;98736.03;5012763;28;20129;-74
2022/06/28 02:16:27;;;;;;;3.13;2.10;;;;;;;26.00;41.53;98725.97;4994878;28;20042;-74
2022/06/28 02:18:53;;;;;;;2.72;1.90;;;;;;;25.99;41.58;98729.69;4995025;28;20496;-74
2022/06/28 02:21:18;;;;;;;4.68;2.10;;;;;;;26.01;41.48;98734.81;5011239;28;20092;-74
2022/06/28 02:23:44;;;;;;;5.28;1.90;;;;;;;26.02;41.87;98727.63;5011033;28;20030;-74
2022/06/28 02:26:11;;;;;;;5.60;2.05;;;;;;;25.99;42.08;98727.00;5014624;28;20040;-75
2022/06/28 02:28:37;;;;;;;6.55;2.22;;;;;;;25.92;42.09;98722.72;5016496;28;20034;-74
2022/06/28 02:31:11;;;;;;;3.90;1.90;;;;;;;25.92;42.35;98726.22;5014979;28;20467;-74
2022/06/28 02:33:36;;;;;;;5.30;1.98;;;;;;;25.89;41.87;98715.97;4982232;28;20073;-74
2022/06/28 02:41:30;;;;;;;3.10;2.10;;;;;;;25.84;42.50;98707.78;5001397;28;20056;-83
2022/06/28 02:43:55;;;;;;;3.38;2.00;;;;;;;25.87;42.54;98702.00;4998705;28;20034;-71
2022/06/28 02:46:21;;;;;;;11.65;2.30;;;;;;;25.93;42.96;98700.28;5014800;28;20053;-71
2022/06/28 02:48:57;;;;;;;3.83;2.33;;;;;;;25.95;42.46;98703.56;5029701;28;20026;-74
2022/06/28 02:51:23;;;;;;;10.05;2.40;;;;;;;25.94;42.89;98696.59;5004449;28;20026;-72
2022/06/28 02:53:48;;;;;;;8.57;2.17;;;;;;;25.97;42.52;98702.34;5002954;28;20552;-72
2022/06/28 02:56:14;;;;;;;5.20;2.20;;;;;;;26.01;42.25;98700.06;5002787;28;20022;-73
2022/06/28 02:58:39;;;;;;;8.07;2.50;;;;;;;25.98;42.66;98703.16;5004063;28;20045;-74
2022/06/28 03:01:05;;;;;;;6.85;2.13;;;;;;;26.00;42.08;98701.91;5002830;28;20085;-73
2022/06/28 03:03:30;;;;;;;7.47;2.20;;;;;;;26.07;42.48;98714.41;4986535;28;20053;-73
2022/06/28 03:05:56;;;;;;;4.22;2.40;;;;;;;26.12;43.37;98714.56;4987616;28;20575;-72
2022/06/28 03:08:22;;;;;;;4.80;2.28;;;;;;;26.15;42.23;98720.28;5004052;28;20049;-72
2022/06/28 03:10:47;;;;;;;6.35;2.40;;;;;;;26.29;41.93;98731.72;4986189;28;20436;-70
2022/06/28 03:13:13;;;;;;;9.45;2.58;;;;;;;26.23;41.77;98727.22;5002197;28;20065;-72
2022/06/28 03:15:38;;;;;;;5.82;2.28;;;;;;;26.24;42.11;98734.22;5004939;28;20060;-71
2022/06/28 03:18:04;;;;;;;4.38;2.45;;;;;;;26.29;42.05;98734.38;5003413;28;20054;-74
2022/06/28 03:20:29;;;;;;;6.05;2.80;;;;;;;26.30;41.57;98740.56;5003364;28;20493;-71
2022/06/28 03:22:55;;;;;;;5.28;2.15;;;;;;;26.27;41.37;98738.34;5003353;28;20038;-74
2022/06/28 03:25:21;;;;;;;4.57;2.33;;;;;;;26.31;41.71;98750.22;5007673;28;20112;-69
2022/06/28 03:27:47;;;;;;;6.25;2.42;;;;;;;26.30;41.31;98752.09;5013348;28;20125;-72
2022/06/28 03:30:12;;;;;;;5.53;2.30;;;;;;;26.28;41.35;98751.50;5013843;28;20026;-71
2022/06/28 03:32:38;;;;;;;5.68;2.08;;;;;;;26.27;41.38;98751.72;4997984;28;20030;-71
2022/06/28 03:35:04;;;;;;;7.20;2.03;;;;;;;26.25;41.34;98743.06;5013675;28;20076;-82
2022/06/28 03:37:29;;;;;;;2.88;2.10;;;;;;;26.23;41.47;98743.28;5013977;28;20034;-76
2022/06/28 03:39:55;;;;;;;6.43;2.67;;;;;;;26.25;41.75;98745.75;5015146;28;20022;-76
2022/06/28 03:42:20;;;;;;;6.40;2.33;;;;;;;26.26;41.76;98747.38;5013971;28;20108;-69
2022/06/28 03:44:46;;;;;;;4.50;2.13;;;;;;;26.25;42.00;98748.41;5014711;28;20117;-69
2022/06/28 03:47:11;;;;;;;5.82;2.45;;;;;;;26.27;42.19;98747.16;5013781;28;20041;-69
2022/06/28 03:49:37;;;;;;;7.68;2.33;;;;;;;26.27;41.93;98751.72;5006526;28;20034;-69
2022/06/28 03:52:03;;;;;;;6.18;2.45;;;;;;;26.29;41.76;98754.97;5013186;28;20046;-69
2022/06/28 03:54:29;;;;;;;6.70;2.20;;;;;;;26.29;41.98;98765.69;5014662;28;20056;-69
2022/06/28 03:56:55;;;;;;;7.78;2.42;;;;;;;26.30;42.05;98756.63;5013586;28;20026;-69
2022/06/28 03:59:20;;;;;;;5.32;2.28;;;;;;;26.32;41.67;98760.72;5013437;28;20559;-69
2022/06/28 04:01:46;;;;;;;6.97;2.28;;;;;;;26.34;41.42;98760.50;5013490;28;20084;-69
2022/06/28 04:04:11;;;;;;;4.97;2.40;;;;;;;26.38;41.30;98759.03;5014926;28;20030;-69
2022/06/28 04:06:37;;;;;;;11.70;2.30;;;;;;;26.41;41.71;98769.28;5013384;28;20045;-69
2022/06/28 04:09:02;;;;;;;9.55;2.70;;;;;;;26.43;41.92;98769.06;5013023;28;20050;-69
2022/06/28 04:11:28;;;;;;;8.38;2.45;;;;;;;26.42;41.57;98762.88;5013284;28;20113;-69
2022/06/28 04:13:53;;;;;;;7.63;2.45;;;;;;;26.46;41.36;98774.78;5013207;28;20033;-69
2022/06/28 04:16:21;;;;;;;5.18;2.50;;;;;;;26.48;41.60;98783.41;5013113;28;20437;-69
2022/06/28 04:18:46;;;;;;;4.68;2.33;;;;;;;26.48;41.76;98775.38;5013066;28;20537;-69
2022/06/28 04:21:13;;;;;;;6.60;2.20;;;;;;;26.48;41.60;98775.38;5012987;28;20082;-69
2022/06/28 04:23:38;;;;;;;8.63;2.10;;;;;;;26.56;41.25;98781.50;5012898;28;20513;-69
2022/06/28 04:26:04;;;;;;;9.60;2.60;;;;;;;26.57;41.67;98772.44;5012965;28;20079;-69
2022/06/28 04:28:30;;;;;;;3.42;2.20;;;;;;;26.58;41.72;98777.56;5012937;28;20030;-68
2022/06/28 04:30:55;;;;;;;6.03;2.50;;;;;;;26.56;41.59;98776.97;5012744;28;20084;-69
2022/06/28 04:33:21;;;;;;;9.63;2.47;;;;;;;26.60;41.58;98788.03;5013118;28;20030;-67
2022/06/28 04:35:46;;;;;;;4.82;2.50;;;;;;;26.59;42.07;98783.75;5013893;28;20034;-68
2022/06/28 04:38:12;;;;;;;7.90;2.30;;;;;;;26.57;41.99;98792.00;5012804;28;20468;-69
2022/06/28 04:40:37;;;;;;;4.80;2.08;;;;;;;26.57;41.54;98783.13;5013929;28;20034;-69
2022/06/28 04:43:03;;;;;;;4.38;2.30;;;;;;;26.57;41.86;98783.13;5012477;28;20448;-69
2022/06/28 04:45:29;;;;;;;4.55;2.22;;;;;;;26.55;41.93;98780.69;5012664;28;20088;-69
2022/06/28 04:47:55;;;;;;;3.15;2.20;;;;;;;26.53;41.86;98780.94;4995763;28;20034;-69
2022/06/28 04:50:20;;;;;;;4.10;2.33;;;;;;;26.52;42.24;98779.28;5012450;28;20029;-70
2022/06/28 04:52:46;;;;;;;4.63;2.03;;;;;;;26.64;42.08;98782.03;5012512;28;20500;-75
2022/06/28 04:55:11;;;;;;;9.48;2.45;;;;;;;26.69;41.93;98778.72;5012949;28;20057;-75
2022/06/28 04:57:37;;;;;;;9.45;2.58;;;;;;;26.64;41.89;98771.31;5012281;28;20046;-76
2022/06/28 05:00:03;;;;;;;6.80;2.17;;;;;;;26.70;41.79;98770.47;5013596;28;20034;-75
2022/06/28 05:02:29;;;;;;;4.47;2.20;;;;;;;26.71;41.65;98772.13;5012278;28;20099;-77
2022/06/28 05:04:54;;;;;;;7.43;2.13;;;;;;;26.78;41.32;98763.22;5012621;28;20042;-78
2022/06/28 05:07:20;;;;;;;7.97;2.10;;;;;;;26.85;41.48;98772.81;5012329;28;20026;-74
2022/06/28 05:09:45;;;;;;;4.70;1.90;;;;;;;26.85;41.07;98767.47;5011881;28;20050;-76
2022/06/28 05:12:11;;;;;;;5.97;1.90;;;;;;;26.89;40.82;98773.19;5012188;28;20478;-75
2022/06/28 05:14:36;;;;;;;8.10;1.90;;;;;;;26.90;41.29;98770.28;5013300;28;20032;-75
2022/06/28 05:17:02;;;;;;;4.13;1.90;;;;;;;26.87;41.30;98754.66;5012152;28;20464;-76
2022/06/28 05:19:28;;;;;;;5.10;1.80;;;;;;;26.90;41.14;98756.88;5012177;28;20072;-75
2022/06/28 05:21:54;;;;;;;8.50;2.08;;;;;;;26.92;41.12;98764.72;5012028;28;20513;-76
2022/06/28 05:24:20;;;;;;;5.10;2.33;;;;;;;26.89;41.79;98767.81;5013153;28;20057;-77
2022/06/28 05:26:45;;;;;;;6.25;2.15;;;;;;;26.88;41.36;98767.03;5011964;28;20069;-74
2022/06/28 05:29:11;;;;;;;6.03;2.10;;;;;;;26.86;41.77;98782.47;5011339;28;20041;-73
2022/06/28 05:31:36;;;;;;;3.75;1.95;;;;;;;26.84;41.50;98792.59;5011869;28;20040;-75
2022/06/28 05:34:02;;;;;;;10.73;1.80;;;;;;;26.76;41.81;98792.88;5011713;28;20096;-74
2022/06/28 05:36:28;;;;;;;4.88;1.90;;;;;;;26.78;42.28;98784.63;5011787;28;20037;-74
2022/06/28 05:38:53;;;;;;;9.18;2.35;;;;;;;26.73;42.09;98779.94;4995394;28;20034;-73
2022/06/28 05:41:19;;;;;;;5.43;2.00;;;;;;;26.79;42.05;98791.59;5011611;28;20034;-72
2022/06/28 05:43:44;;;;;;;5.75;2.13;;;;;;;26.80;42.07;98790.56;5012831;28;20034;-73
2022/06/28 05:46:10;;;;;;;6.00;2.00;;;;;;;26.80;41.92;98796.75;5012763;28;20474;-73
2022/06/28 05:48:36;;;;;;;7.40;2.30;;;;;;;26.82;41.85;98791.16;5011420;28;20120;-73
2022/06/28 05:51:02;;;;;;;5.93;1.90;;;;;;;26.84;41.76;98792.59;5011661;28;20046;-73
2022/06/28 05:53:27;;;;;;;11.43;2.30;;;;;;;26.86;41.77;98792.38;4995080;28;20046;-73
2022/06/28 05:55:53;;;;;;;2.95;2.00;;;;;;;26.89;41.76;98802.66;4995081;28;20034;-73
2022/06/28 05:58:18;;;;;;;5.47;2.08;;;;;;;26.93;41.40;98803.00;5027689;28;20042;-73
2022/06/28 06:00:44;;;;;;;6.97;2.20;;;;;;;27.00;41.87;98801.09;5011292;28;20069;-72
2022/06/28 06:03:11;;;;;;;4.60;2.08;;;;;;;27.04;41.61;98815.66;5028351;28;20038;-73
2022/06/28 06:05:37;;;;;;;;;;;;;;;27.16;40.97;98813.09;4999499;28;20041;-73
2022/06/28 06:08:02;;;;;;;7.07;2.10;;;;;;;27.15;41.06;98812.28;5027430;28;20384;-73
2022/06/28 06:10:28;;;;;;;3.88;2.20;;;;;;;27.20;40.91;98822.28;5010949;28;20129;-72
2022/06/28 06:12:53;;;;;;;8.27;2.30;;;;;;;27.27;40.77;98829.22;5012916;28;20037;-72
2022/06/28 06:15:20;;;;;;;6.40;2.28;;;;;;;27.33;41.16;98830.22;5011106;28;20420;-72
2022/06/28 06:17:46;;;;;;;6.15;2.05;;;;;;;27.40;40.83;98836.31;5011377;28;20030;-73
2022/06/28 06:20:11;;;;;;;9.32;2.60;;;;;;;27.46;40.91;98836.47;5012391;28;20033;-74
2022/06/28 06:22:37;;;;;;;10.50;2.08;;;;;;;27.51;40.79;98828.56;5012207;28;20524;-72
2022/06/28 06:25:03;;;;;;;9.68;2.35;;;;;;;27.60;41.10;98829.91;5011221;28;20419;-77
2022/06/28 06:27:29;;;;;;;7.82;2.20;;;;;;;27.70;41.32;98832.06;5011487;28;20465;-75
2022/06/28 06:29:54;;;;;;;10.40;2.35;;;;;;;27.78;41.03;98834.41;5027652;28;20033;-75
2022/06/28 06:32:20;;;;;;;5.45;2.03;;;;;;;27.80;40.60;98843.88;4994788;28;20072;-75
2022/06/28 06:34:46;;;;;;;8.93;2.30;;;;;;;27.90;40.62;98847.88;5012280;28;20037;-74
2022/06/28 06:37:11;;;;;;;7.75;2.00;;;;;;;27.99;40.71;98843.88;5010714;28;20608;-75
2022/06/28 06:39:37;;;;;;;13.95;2.10;;;;;;;28.04;40.38;98843.16;5010709;28;20026;-74
2022/06/28 06:42:02;;;;;;;5.57;2.08;;;;;;;28.12;40.52;98854.41;4994552;28;20037;-74
2022/06/28 06:44:28;;;;;;;6.22;2.20;;;;;;;28.13;40.71;98852.53;5010460;28;20421;-74
2022/06/28 06:46:55;;;;;;;15.70;2.40;;;;;;;28.19;40.37;98846.25;5012650;28;20034;-79
2022/06/28 06:49:20;;;;;;;7.72;2.10;;;;;;;28.23;39.82;98854.66;5011072;28;20025;-76
2022/06/28 06:51:48;;;;;;;12.88;2.10;;;;;;;28.26;40.53;98848.81;5010612;28;20053;-75
2022/06/28 06:54:14;;;;;;;7.03;2.25;;;;;;;28.32;40.20;98855.97;4994571;28;20413;-75
2022/06/28 06:56:40;;;;;;;9.50;2.03;;;;;;;28.29;39.98;98856.41;4978317;28;20030;-76
2022/06/28 06:59:07;;;;;;;7.30;2.25;;;;;;;28.28;40.57;98860.97;5010838;28;20026;-78
2022/06/28 07:01:33;;;;;;;7.40;2.20;;;;;;;28.27;40.67;98864.69;5010812;28;20095;-75
2022/06/28 07:03:59;;;;;;;5.40;2.25;;;;;;;28.31;41.04;98860.53;5011315;28;20269;-76
2022/06/28 07:06:25;;;;;;;10.20;2.17;;;;;;;28.36;41.10;98862.50;4994677;28;20093;-75
2022/06/28 07:08:50;;;;;;;6.28;2.25;;;;;;;28.37;40.40;98866.84;5011912;28;20050;-75
2022/06/28 07:11:16;;;;;;;7.85;2.40;;;;;;;28.37;41.10;98869.53;5013613;28;20025;-74
2022/06/28 07:13:41;;;;;;;3.35;2.08;;;;;;;28.42;40.67;98869.66;5014604;28;20478;-72
2022/06/28 07:16:07;;;;;;;8.90;2.40;;;;;;;28.41;40.34;98873.38;5014232;28;20034;-73
2022/06/28 07:18:33;;;;;;;7.22;2.78;;;;;;;28.35;41.00;98868.91;5022724;28;20034;-87
2022/06/28 07:21:00;;;;;;;7.13;3.15;;;;;;;28.40;41.31;98870.91;5019400;28;20026;-88
2022/06/28 07:23:38;;;;;;;10.18;2.97;;;;;;;28.48;40.99;98878.63;5017048;28;20037;-91
2022/06/28 07:26:04;;;;;;;4.68;2.38;;;;;;;28.51;40.78;98876.34;5023130;28;20026;-85
2022/06/28 07:28:30;;;;;;;7.40;2.60;;;;;;;28.56;40.77;98867.59;5015793;28;20041;-72
2022/06/28 07:30:55;;;;;;;6.78;2.90;;;;;;;28.61;40.82;98867.72;5015072;28;20022;-74
2022/06/28 07:33:21;;;;;;;15.77;2.70;;;;;;;28.62;40.91;98866.69;4997808;28;20033;-72
2022/06/28 07:35:46;;;;;;;8.55;2.80;;;;;;;28.72;40.86;98874.16;5013961;28;20131;-70
2022/06/28 07:38:12;;;;;;;11.02;2.50;;;;;;;28.75;41.26;98864.81;5013962;28;20036;-71
2022/06/28 07:40:38;;;;;;;6.00;2.20;;;;;;;28.73;40.93;98866.91;4998772;28;20465;-71
2022/06/28 07:43:03;;;;;;;12.93;2.15;;;;;;;28.77;40.55;98878.84;4995601;28;20114;-72
2022/06/28 07:45:29;;;;;;;9.45;2.58;;;;;;;28.75;42.27;98872.88;4997390;28;20034;-72
2022/06/28 07:47:54;;;;;;;14.30;2.40;;;;;;;28.75;41.20;98876.41;5013627;28;20494;-71
2022/06/28 07:53:05;;;;;;;6.43;2.10;;;;;;;28.71;40.94;98866.34;5012498;28;20096;-73
2022/06/28 07:55:30;;;;;;;11.90;2.22;;;;;;;28.68;40.51;98865.75;5013504;28;20149;-71
2022/06/28 07:57:56;;;;;;;5.32;2.05;;;;;;;28.69;40.45;98872.75;5013377;28;20117;-69
2022/06/28 08:00:22;;;;;;;5.30;2.15;;;;;;;28.73;40.06;98872.28;4996734;28;20409;-74
2022/06/28 08:02:48;;;;;;;8.20;2.08;;;;;;;28.77;40.42;98870.78;4978398;28;20073;-74
2022/06/28 08:05:14;;;;;;;14.38;2.28;;;;;;;28.83;40.55;98878.72;4996617;28;20555;-73
2022/06/28 08:07:39;;;;;;;9.35;2.15;;;;;;;28.86;39.95;98872.06;5013594;28;20441;-73
2022/06/28 08:10:06;;;;;;;4.82;1.90;;;;;;;28.86;39.99;98872.91;5014589;28;20141;-73
2022/06/28 08:12:31;;;;;;;5.20;2.25;;;;;;;28.92;40.36;98881.06;5013207;28;20091;-73
2022/06/28 08:14:57;;;;;;;5.30;1.70;;;;;;;28.87;39.51;98879.06;5013229;28;20038;-74
2022/06/28 08:17:22;;;;;;;6.35;2.10;;;;;;;28.90;39.58;98875.91;5013261;28;20026;-76
2022/06/28 08:19:48;;;;;;;13.60;2.42;;;;;;;28.85;39.17;98875.81;5014063;28;20034;-74
2022/06/28 08:22:13;;;;;;;9.82;2.22;;;;;;;28.80;39.43;98871.13;5007481;28;20133;-74
2022/06/28 08:24:39;;;;;;;4.20;1.80;;;;;;;28.83;38.83;98870.66;4996346;28;20046;-74
2022/06/28 08:27:05;;;;;;;11.93;2.30;;;;;;;28.84;39.43;98871.47;4980757;28;20030;-74
2022/06/28 08:29:31;;;;;;;4.70;1.98;;;;;;;28.79;40.02;98874.06;4994111;28;20045;-75
2022/06/28 08:31:57;;;;;;;8.80;1.90;;;;;;;28.75;39.51;98873.72;4994409;28;20030;-74
2022/06/28 08:34:23;;;;;;;4.70;1.83;;;;;;;28.70;39.42;98878.94;5009710;28;20053;-75
2022/06/28 08:36:48;;;;;;;7.40;1.85;;;;;;;28.64;39.82;98878.00;4994296;28;20053;-83
2022/06/28 08:39:14;;;;;;;7.13;2.15;;;;;;;28.63;40.18;98873.69;4979099;28;20453;-82
2022/06/28 08:41:40;;;;;;;10.40;1.90;;;;;;;28.69;40.75;98871.94;4984003;28;20478;-88
2022/06/28 08:44:06;;;;;;;13.77;2.28;;;;;;;28.74;41.28;98873.94;4994122;28;20049;-83
2022/06/28 08:46:32;;;;;;;11.95;1.90;;;;;;;28.74;42.02;98873.94;5008251;28;20030;-78
2022/06/28 08:49:03;;;;;;;13.85;2.30;;;;;;;28.67;42.54;98863.28;4996947;28;20536;-76
2022/06/28 08:51:30;;;;;;;6.68;1.95;;;;;;;28.67;44.51;98858.75;5012981;28;20037;-78
2022/06/28 08:54:00;;;;;;;9.93;2.10;;;;;;;28.60;44.81;98866.09;4980711;28;20034;-80
2022/06/28 08:56:26;;;;;;;12.68;2.28;;;;;;;28.51;42.45;98865.59;4980760;28;20038;-80
2022/06/28 08:58:51;;;;;;;7.93;2.22;;;;;;;28.42;42.71;98860.78;4997021;28;20061;-80
2022/06/28 09:01:17;;;;;;;8.00;2.08;;;;;;;28.41;44.45;98876.06;4996273;28;20034;-79
2022/06/28 09:03:42;;;;;;;10.18;2.30;;;;;;;28.37;43.88;98868.69;4996239;28;20049;-80
2022/06/28 09:06:08;;;;;;;11.50;2.38;;;;;;;28.32;45.42;98869.38;4980228;28;20404;-79
2022/06/28 09:08:34;;;;;;;7.15;1.90;;;;;;;28.27;44.71;98871.94;4996077;28;20118;-79
2022/06/28 09:10:59;;;;;;;5.95;2.10;;;;;;;28.27;45.90;98870.06;5012247;28;20104;-79
2022/06/28 09:13:25;;;;;;;15.35;2.53;;;;;;;28.25;45.45;98871.34;5012420;28;20033;-79
2022/06/28 09:15:58;;;;;;;7.38;2.20;;;;;;;28.20;44.77;98865.88;5012203;28;20505;-80
2022/06/28 09:18:26;;;;;;;8.80;2.00;;;;;;;28.23;46.65;98865.38;4996653;28;20500;-77
2022/06/28 09:20:54;;;;;;;7.05;1.90;;;;;;;28.22;45.46;98864.56;4995480;28;20408;-79
2022/06/28 09:23:27;;;;;;;8.80;1.90;;;;;;;28.24;45.67;98865.16;4981008;28;20133;-80
2022/06/28 09:25:54;;;;;;;5.28;1.90;;;;;;;28.30;47.36;98860.75;4980854;28;20036;-78
2022/06/28 09:28:24;;;;;;;5.57;2.10;;;;;;;28.34;46.19;98860.06;4979875;28;20463;-80
2022/06/28 09:30:50;;;;;;;12.15;1.90;;;;;;;28.39;46.95;98856.69;4996055;28;20033;-79
2022/06/28 09:33:26;;;;;;;9.35;2.42;;;;;;;28.46;45.26;98861.94;5011901;28;20496;-80
2022/06/28 09:35:52;;;;;;;4.25;1.70;;;;;;;28.57;45.41;98861.16;4979730;28;20029;-78
2022/06/28 09:38:28;;;;;;;8.02;2.28;;;;;;;28.69;45.47;98859.31;5013210;28;20118;-78
2022/06/28 09:40:54;;;;;;;7.50;2.00;;;;;;;28.84;45.26;98856.19;5012220;28;20139;-78
2022/06/28 09:43:19;;;;;;;5.85;2.05;;;;;;;28.99;43.74;98861.09;4995189;28;20510;-79
2022/06/28 09:45:50;;;;;;;5.10;2.10;;;;;;;29.14;44.15;98862.47;4995925;28;20030;-78
2022/06/28 09:48:17;;;;;;;3.63;1.90;;;;;;;29.27;44.71;98858.75;4998122;28;20065;-79
2022/06/28 09:50:42;;;;;;;3.75;1.58;;;;;;;29.43;45.15;98874.16;4979218;28;20033;-80
2022/06/28 09:53:08;;;;;;;6.97;2.00;;;;;;;29.56;44.91;98873.09;5011765;28;20049;-80
2022/06/28 09:55:34;;;;;;;3.20;1.80;;;;;;;29.64;42.07;98872.72;4978873;28;20129;-78
2022/06/28 09:58:00;;;;;;;6.35;2.00;;;;;;;29.71;44.63;98870.69;5013108;28;20026;-79
2022/06/28 10:00:26;;;;;;;5.65;2.00;;;;;;;29.82;44.87;98881.69;4996064;28;20028;-79
2022/06/28 10:02:56;;;;;;;3.78;2.00;;;;;;;29.90;43.81;98875.91;5011608;28;20117;-78
2022/06/28 10:05:21;;;;;;;4.22;1.98;;;;;;;29.95;42.54;98874.16;4995568;28;20538;-78
2022/06/28 10:07:47;;;;;;;4.43;1.75;;;;;;;30.04;44.38;98879.94;4995077;28;20042;-78
2022/06/28 10:10:12;;;;;;;2.58;1.80;;;;;;;30.11;44.27;98882.53;4978827;28;20021;-79
2022/06/28 10:15:24;;;;;;;4.30;1.90;;;;;;;30.13;44.76;98883.09;4998050;28;20101;-78
2022/06/28 10:17:53;;;;;;;5.75;1.77;;;;;;;30.16;43.74;98889.84;4979050;28;20041;-79
2022/06/28 10:20:22;;;;;;;6.32;1.90;;;;;;;30.17;44.03;98889.59;5012746;28;20160;-78
2022/06/28 10:22:47;;;;;;;5.20;1.60;;;;;;;30.18;42.52;98885.06;5013443;28;20041;-80
2022/06/28 10:25:14;;;;;;;5.82;1.80;;;;;;;30.21;40.11;98889.97;4978887;28;20045;-79
2022/06/28 10:27:44;;;;;;;7.93;1.83;;;;;;;30.20;39.88;98889.13;5011593;28;20083;-79
2022/06/28 10:30:18;;;;;;;6.55;1.90;;;;;;;30.23;43.26;98887.84;5011593;28;20281;-78
2022/06/28 10:32:45;;;;;;;7.80;2.35;;;;;;;30.25;41.17;98881.16;4995146;28;20451;-79
2022/06/28 10:35:15;;;;;;;7.28;2.15;;;;;;;30.35;41.81;98893.13;4995560;28;20034;-78
2022/06/28 10:38:09;;;;;;;5.32;2.10;;;;;;;30.42;39.72;98891.97;4979519;28;20030;-77
2022/06/28 10:40:50;;;;;;;6.38;2.20;;;;;;;30.47;39.04;98880.47;5006589;28;20042;-79
2022/06/28 10:43:27;;;;;;;5.28;1.70;;;;;;;30.56;38.85;98888.97;5027974;28;20030;-80
2022/06/28 10:46:07;;;;;;;2.30;1.58;;;;;;;30.64;39.72;98885.88;5013598;28;20030;-80
2022/06/28 10:48:47;;;;;;;6.13;1.80;;;;;;;30.70;40.88;98878.69;5015409;28;20025;-80
2022/06/28 10:51:13;;;;;;;5.25;1.92;;;;;;;30.78;39.41;98883.66;5016683;28;20121;-79
2022/06/28 10:53:57;;;;;;;5.88;1.98;;;;;;;30.81;39.63;98881.28;4998383;28;20041;-79
2022/06/28 10:56:25;;;;;;;7.30;1.85;;;;;;;30.87;38.37;98873.28;5032266;28;20409;-80
2022/06/28 10:58:58;;;;;;;6.47;1.70;;;;;;;30.94;40.88;98869.34;5015261;28;20496;-79
2022/06/28 11:01:39;;;;;;;3.70;1.88;;;;;;;31.06;40.74;98876.53;5015160;28;20030;-80
2022/06/28 11:04:09;;;;;;;4.65;1.90;;;;;;;31.17;40.43;98871.06;5031365;28;20032;-79
2022/06/28 11:06:44;;;;;;;3.42;1.73;;;;;;;31.33;39.85;98868.56;4998435;28;20046;-79
2022/06/28 11:09:39;;;;;;;4.80;1.65;;;;;;;31.50;39.95;98868.50;5015165;28;20050;-80
2022/06/28 11:12:11;;;;;;;2.92;1.60;;;;;;;31.71;39.72;98861.50;5031313;28;20030;-80
2022/06/28 11:14:54;;;;;;;8.80;1.80;;;;;;;31.88;39.21;98858.69;5014623;28;20041;-79
2022/06/28 11:17:27;;;;;;;6.47;1.80;;;;;;;31.96;38.51;98852.88;5031021;28;20473;-79
2022/06/28 11:19:54;;;;;;;2.65;1.50;;;;;;;32.00;37.63;98842.38;4999068;28;20049;-79
2022/06/28 11:22:25;;;;;;;4.88;1.85;;;;;;;32.06;37.88;98838.66;4998212;28;20129;-78
2022/06/28 11:24:50;;;;;;;4.32;1.73;;;;;;;32.11;37.91;98841.44;5014609;28;20045;-79
2022/06/28 11:27:22;;;;;;;5.68;1.50;;;;;;;32.12;37.23;98847.63;4997992;28;20109;-79
2022/06/28 11:30:05;;;;;;;4.22;1.80;;;;;;;32.10;37.85;98843.31;5014770;28;20076;-79
2022/06/28 11:32:35;;;;;;;2.30;1.55;;;;;;;32.07;37.98;98834.88;5014421;28;20092;-79
2022/06/28 11:35:07;;;;;;;4.38;1.65;;;;;;;32.04;37.83;98846.16;4997976;28;20053;-78
2022/06/28 11:38:03;;;;;;;4.63;1.55;;;;;;;31.96;37.49;98850.19;4997515;28;20030;-79
2022/06/28 11:40:39;;;;;;;6.03;1.63;;;;;;;31.87;38.13;98847.09;5015952;28;20040;-80
2022/06/28 11:43:09;;;;;;;7.85;1.63;;;;;;;31.78;36.95;98845.91;4998516;28;20469;-79
2022/06/28 11:45:45;;;;;;;4.85;1.85;;;;;;;31.70;37.20;98847.19;5014363;28;20030;-80